createdAt,value
2023-02-18T00:00:27.325Z,500.50
2023-02-18T00:01:28.026Z,516.00
2023-02-18T00:02:28.792Z,484.00
2023-02-18T00:03:29.531Z,491.70
2023-02-18T00:04:30.190Z,504.30
2023-02-18T00:05:30.908Z,486.50
2023-02-18T00:06:31.618Z,498.50
2023-02-18T00:07:32.313Z,493.80
2023-02-18T00:08:33.043Z,495.20
2023-02-18T00:09:33.684Z,485.90
2023-02-18T00:10:34.400Z,491.70
2023-02-18T00:11:35.103Z,491.90
2023-02-18T00:12:35.832Z,479.00
2023-02-18T00:13:36.517Z,465.10
2023-02-18T00:14:37.224Z,477.90
2023-02-18T00:15:38.324Z,476.30
2023-02-18T00:16:38.507Z,486.90
2023-02-18T00:17:39.226Z,491.50
2023-02-18T00:18:40.028Z,471.60
2023-02-18T00:19:40.729Z,479.80
2023-02-18T00:20:41.439Z,477.10
2023-02-18T00:21:42.150Z,482.80
2023-02-18T00:22:42.856Z,475.50
2023-02-18T00:23:44.135Z,474.20
2023-02-18T00:24:44.317Z,472.40
2023-02-18T00:25:45.271Z,472.20
2023-02-18T00:26:45.993Z,452.00
2023-02-18T00:27:46.701Z,435.70
2023-02-18T00:28:47.389Z,458.00
2023-02-18T00:29:48.093Z,433.50
2023-02-18T00:30:49.314Z,445.20
2023-02-18T00:31:49.551Z,447.60
2023-02-18T00:32:50.255Z,444.70
2023-02-18T00:33:50.951Z,432.40
2023-02-18T00:34:51.657Z,433.20
2023-02-18T00:35:52.371Z,434.10
2023-02-18T00:36:53.073Z,437.70
2023-02-18T00:37:53.784Z,423.50
2023-02-18T00:38:54.601Z,416.10
2023-02-18T00:39:55.239Z,416.80
2023-02-18T00:40:55.963Z,446.50
2023-02-18T00:41:56.686Z,422.50
2023-02-18T00:42:57.395Z,443.80
2023-02-18T00:43:58.091Z,430.50
2023-02-18T00:44:58.786Z,432.00
2023-02-18T00:45:59.554Z,439.70
2023-02-18T00:47:00.221Z,421.50
2023-02-18T00:48:00.925Z,436.50
2023-02-18T00:49:01.629Z,423.70
2023-02-18T00:50:02.336Z,435.30
2023-02-18T00:51:03.050Z,444.10
2023-02-18T00:52:03.756Z,441.00
2023-02-18T00:53:04.459Z,442.60
2023-02-18T00:54:05.211Z,434.00
2023-02-18T00:55:05.848Z,440.10
2023-02-18T00:56:07.238Z,446.30
2023-02-18T00:57:07.117Z,442.70
2023-02-18T00:58:07.843Z,451.90
2023-02-18T00:59:08.522Z,446.20
2023-02-18T01:00:09.232Z,452.30
2023-02-18T01:01:09.962Z,434.10
2023-02-18T01:02:10.670Z,421.30
2023-02-18T01:03:11.381Z,435.80
2023-02-18T01:04:12.076Z,446.60
2023-02-18T01:05:12.780Z,440.50
2023-02-18T01:06:13.515Z,455.90
2023-02-18T01:07:14.246Z,394.00
2023-02-18T01:08:14.922Z,412.50
2023-02-18T01:09:15.651Z,423.90
2023-02-18T01:10:18.336Z,404.10
2023-02-18T01:11:16.789Z,423.20
2023-02-18T01:12:17.488Z,412.90
2023-02-18T01:13:18.210Z,416.70
2023-02-18T01:14:18.912Z,410.80
2023-02-18T01:15:19.612Z,393.90
2023-02-18T01:16:20.422Z,421.30
2023-02-18T01:17:21.088Z,421.60
2023-02-18T01:18:21.788Z,413.30
2023-02-18T01:19:22.495Z,427.50
2023-02-18T01:20:23.197Z,426.20
2023-02-18T01:21:23.911Z,409.20
2023-02-18T01:22:24.614Z,427.10
2023-02-18T01:23:25.318Z,418.40
2023-02-18T01:24:26.037Z,410.80
2023-02-18T01:25:26.664Z,392.00
2023-02-18T01:26:27.396Z,395.80
2023-02-18T01:27:28.084Z,419.00
2023-02-18T01:28:28.808Z,390.40
2023-02-18T01:29:29.492Z,400.40
2023-02-18T01:30:30.235Z,413.50
2023-02-18T01:31:31.425Z,393.50
2023-02-18T01:32:31.645Z,402.40
2023-02-18T01:33:32.366Z,404.70
2023-02-18T01:34:33.058Z,391.50
2023-02-18T01:35:33.761Z,383.50
2023-02-18T01:36:34.471Z,397.80
2023-02-18T01:37:35.176Z,402.20
2023-02-18T01:38:35.879Z,400.20
2023-02-18T01:39:36.614Z,398.30
2023-02-18T01:40:37.288Z,380.70
2023-02-18T01:41:38.724Z,399.10
2023-02-18T01:42:38.932Z,394.30
2023-02-18T01:43:39.688Z,391.90
2023-02-18T01:44:40.346Z,402.80
2023-02-18T01:45:41.056Z,402.70
2023-02-18T01:46:41.860Z,403.60
2023-02-18T01:47:42.520Z,401.30
2023-02-18T01:48:43.226Z,397.00
2023-02-18T01:49:43.932Z,399.10
2023-02-18T01:50:44.638Z,390.60
2023-02-18T01:51:45.784Z,387.60
2023-02-18T01:52:45.990Z,399.00
2023-02-18T01:53:46.694Z,402.40
2023-02-18T01:54:47.427Z,414.70
2023-02-18T01:55:48.046Z,417.60
2023-02-18T01:56:48.784Z,399.10
2023-02-18T01:57:49.484Z,388.20
2023-02-18T01:58:50.206Z,387.90
2023-02-18T01:59:50.892Z,395.80
2023-02-18T02:00:51.610Z,394.90
2023-02-18T02:01:52.837Z,394.00
2023-02-18T02:02:53.013Z,397.30
2023-02-18T02:03:53.709Z,364.40
2023-02-18T02:04:54.412Z,367.80
2023-02-18T02:05:55.114Z,377.40
2023-02-18T02:06:55.827Z,365.90
2023-02-18T02:07:56.529Z,391.60
2023-02-18T02:08:57.235Z,380.40
2023-02-18T02:09:58.061Z,372.80
2023-02-18T02:10:58.685Z,385.80
2023-02-18T02:11:59.396Z,390.30
2023-02-18T02:13:00.114Z,387.90
2023-02-18T02:14:00.824Z,379.20
2023-02-18T02:15:01.512Z,372.60
2023-02-18T02:16:02.319Z,344.90
2023-02-18T02:17:02.989Z,354.60
2023-02-18T02:18:03.695Z,355.00
2023-02-18T02:19:04.394Z,358.60
2023-02-18T02:20:05.099Z,351.10
2023-02-18T02:21:05.803Z,360.60
2023-02-18T02:22:06.783Z,361.20
2023-02-18T02:23:07.511Z,339.50
2023-02-18T02:24:08.225Z,332.80
2023-02-18T02:25:08.957Z,334.40
2023-02-18T02:26:09.832Z,312.30
2023-02-18T02:27:10.285Z,334.80
2023-02-18T02:28:10.992Z,316.70
2023-02-18T02:29:11.716Z,309.60
2023-02-18T02:30:12.451Z,330.20
2023-02-18T02:31:13.280Z,303.90
2023-02-18T02:32:13.946Z,319.80
2023-02-18T02:33:14.672Z,334.50
2023-02-18T02:34:15.361Z,346.50
2023-02-18T02:35:16.071Z,316.90
2023-02-18T02:36:16.781Z,301.80
2023-02-18T02:37:17.785Z,273.30
2023-02-18T02:38:17.994Z,264.50
2023-02-18T02:39:18.694Z,274.40
2023-02-18T02:40:19.415Z,275.60
2023-02-18T02:41:20.104Z,266.30
2023-02-18T02:42:21.833Z,281.10
2023-02-18T02:43:21.551Z,288.60
2023-02-18T02:44:22.264Z,244.30
2023-02-18T02:45:22.981Z,241.20
2023-02-18T02:46:23.656Z,217.20
2023-02-18T02:47:24.815Z,243.00
2023-02-18T02:48:25.011Z,250.90
2023-02-18T02:49:25.723Z,275.40
2023-02-18T02:50:26.422Z,244.40
2023-02-18T02:51:27.127Z,214.90
2023-02-18T02:52:27.843Z,216.70
2023-02-18T02:53:28.546Z,210.10
2023-02-18T02:54:29.317Z,188.00
2023-02-18T02:55:29.989Z,209.80
2023-02-18T02:56:30.632Z,203.50
2023-02-18T02:57:31.794Z,190.80
2023-02-18T02:58:32.003Z,194.90
2023-02-18T02:59:32.723Z,163.90
2023-02-18T03:00:33.420Z,171.60
2023-02-18T03:01:34.117Z,174.00
2023-02-18T03:02:35.312Z,175.50
2023-02-18T03:03:35.499Z,151.30
2023-02-18T03:04:36.201Z,158.50
2023-02-18T03:05:36.906Z,145.10
2023-02-18T03:06:37.609Z,151.70
2023-02-18T03:07:38.797Z,153.80
2023-02-18T03:08:39.033Z,145.50
2023-02-18T03:09:39.706Z,145.50
2023-02-18T03:10:40.531Z,134.50
2023-02-18T03:11:41.177Z,156.20
2023-02-18T03:12:42.298Z,139.30
2023-02-18T03:13:42.499Z,139.20
2023-02-18T03:14:43.228Z,133.60
2023-02-18T03:15:43.916Z,131.80
2023-02-18T03:16:44.698Z,130.80
2023-02-18T03:17:45.397Z,117.50
2023-02-18T03:18:46.091Z,118.50
2023-02-18T03:19:46.800Z,129.20
2023-02-18T03:20:47.498Z,124.70
2023-02-18T03:21:48.209Z,119.80
2023-02-18T03:22:49.298Z,130.30
2023-02-18T03:23:49.506Z,114.50
2023-02-18T03:24:50.209Z,116.90
2023-02-18T03:25:50.946Z,124.30
2023-02-18T03:26:51.580Z,133.50
2023-02-18T03:27:52.306Z,118.20
2023-02-18T03:28:53.006Z,131.90
2023-02-18T03:29:53.726Z,139.00
2023-02-18T03:30:54.412Z,127.20
2023-02-18T03:31:55.303Z,137.60
2023-02-18T03:32:56.331Z,135.50
2023-02-18T03:33:57.032Z,126.10
2023-02-18T03:34:57.732Z,150.60
2023-02-18T03:35:58.440Z,154.40
2023-02-18T03:36:59.288Z,163.80
2023-02-18T03:38:00.299Z,160.40
2023-02-18T03:39:00.504Z,173.80
2023-02-18T03:40:01.214Z,175.70
2023-02-18T03:41:01.941Z,186.10
2023-02-18T03:42:02.573Z,174.80
2023-02-18T03:43:04.251Z,175.60
2023-02-18T03:44:03.954Z,177.70
2023-02-18T03:45:04.695Z,189.00
2023-02-18T03:46:05.432Z,182.80
2023-02-18T03:47:06.119Z,186.70
2023-02-18T03:48:06.858Z,167.60
2023-02-18T03:49:07.565Z,190.10
2023-02-18T03:50:08.274Z,184.00
2023-02-18T03:51:08.974Z,201.00
2023-02-18T03:52:09.673Z,184.90
2023-02-18T03:53:10.384Z,180.50
2023-02-18T03:54:11.093Z,181.90
2023-02-18T03:55:11.791Z,183.90
2023-02-18T03:56:12.511Z,182.00
2023-02-18T03:57:13.145Z,181.40
2023-02-18T03:58:14.299Z,188.90
2023-02-18T03:59:14.506Z,180.00
2023-02-18T04:00:15.235Z,184.50
2023-02-18T04:01:15.966Z,182.60
2023-02-18T04:02:16.620Z,176.70
2023-02-18T04:03:17.341Z,185.90
2023-02-18T04:04:18.077Z,189.20
2023-02-18T04:05:18.755Z,193.40
2023-02-18T04:06:19.453Z,206.40
2023-02-18T04:07:20.156Z,189.90
2023-02-18T04:08:21.300Z,186.40
2023-02-18T04:09:21.503Z,198.30
2023-02-18T04:10:22.210Z,200.70
2023-02-18T04:11:22.931Z,203.30
2023-02-18T04:12:24.408Z,221.40
2023-02-18T04:13:24.299Z,206.80
2023-02-18T04:14:25.002Z,195.50
2023-02-18T04:15:25.728Z,195.00
2023-02-18T04:16:26.459Z,201.40
2023-02-18T04:17:27.115Z,208.80
2023-02-18T04:18:28.318Z,214.50
2023-02-18T04:19:28.527Z,217.90
2023-02-18T04:20:29.226Z,211.60
2023-02-18T04:21:29.936Z,227.70
2023-02-18T04:22:30.635Z,217.70
2023-02-18T04:23:31.356Z,240.60
2023-02-18T04:24:32.053Z,219.20
2023-02-18T04:25:32.761Z,208.00
2023-02-18T04:26:33.487Z,206.40
2023-02-18T04:27:34.108Z,198.40
2023-02-18T04:28:34.951Z,202.90
2023-02-18T04:29:35.647Z,215.00
2023-02-18T04:30:36.479Z,220.50
2023-02-18T04:31:37.254Z,226.90
2023-02-18T04:32:37.929Z,235.80
2023-02-18T04:33:38.801Z,232.90
2023-02-18T04:34:39.508Z,249.10
2023-02-18T04:35:41.862Z,239.70
2023-02-18T04:36:41.126Z,241.80
2023-02-18T04:37:41.830Z,246.70
2023-02-18T04:38:42.805Z,254.70
2023-02-18T04:39:43.508Z,247.90
2023-02-18T04:40:44.212Z,240.20
2023-02-18T04:41:45.036Z,227.70
2023-02-18T04:42:45.739Z,215.10
2023-02-18T04:43:47.879Z,204.10
2023-02-18T04:44:47.646Z,214.80
2023-02-18T04:45:47.920Z,203.80
2023-02-18T04:46:48.598Z,209.20
2023-02-18T04:47:49.297Z,212.40
2023-02-18T04:48:50.031Z,210.70
2023-02-18T04:49:50.731Z,200.60
2023-02-18T04:50:51.431Z,200.20
2023-02-18T04:51:52.137Z,175.40
2023-02-18T04:52:52.844Z,164.20
2023-02-18T04:53:53.803Z,166.10
2023-02-18T04:54:54.509Z,168.10
2023-02-18T04:55:55.225Z,147.60
2023-02-18T04:56:55.948Z,158.10
2023-02-18T04:57:56.579Z,147.50
2023-02-18T04:58:57.296Z,153.80
2023-02-18T04:59:57.995Z,142.50
2023-02-18T05:00:58.720Z,120.00
2023-02-18T05:01:59.407Z,134.20
2023-02-18T05:03:00.108Z,137.90
2023-02-18T05:04:01.389Z,127.40
2023-02-18T05:05:01.545Z,140.00
2023-02-18T05:06:02.248Z,128.00
2023-02-18T05:07:02.956Z,127.80
2023-02-18T05:08:03.660Z,127.40
2023-02-18T05:09:04.370Z,123.30
2023-02-18T05:10:05.084Z,128.40
2023-02-18T05:11:05.781Z,119.80
2023-02-18T05:12:06.503Z,108.50
2023-02-18T05:13:07.135Z,109.10
2023-02-18T05:14:08.315Z,119.90
2023-02-18T05:15:08.523Z,96.90
2023-02-18T05:16:09.705Z,92.80
2023-02-18T05:17:10.068Z,96.80
2023-02-18T05:18:10.765Z,94.90
2023-02-18T05:19:11.833Z,92.50
2023-02-18T05:20:12.041Z,90.10
2023-02-18T05:21:12.748Z,74.80
2023-02-18T05:22:13.446Z,80.40
2023-02-18T05:23:14.148Z,72.30
2023-02-18T05:24:14.864Z,77.70
2023-02-18T05:25:15.570Z,76.30
2023-02-18T05:26:16.274Z,77.10
2023-02-18T05:27:16.996Z,79.80
2023-02-18T05:28:17.658Z,82.20
2023-02-18T05:29:18.368Z,68.70
2023-02-18T05:30:19.086Z,67.30
2023-02-18T05:31:19.914Z,60.60
2023-02-18T05:32:20.616Z,62.10
2023-02-18T05:33:21.322Z,46.50
2023-02-18T05:34:22.336Z,45.50
2023-02-18T05:35:22.534Z,52.50
2023-02-18T05:36:23.266Z,45.60
2023-02-18T05:37:23.972Z,56.90
2023-02-18T05:38:24.677Z,45.10
2023-02-18T05:39:25.384Z,41.70
2023-02-18T05:40:26.093Z,54.90
2023-02-18T05:41:26.797Z,53.30
2023-02-18T05:42:27.538Z,50.20
2023-02-18T05:43:28.207Z,47.30
2023-02-18T05:44:30.011Z,48.60
2023-02-18T05:45:29.709Z,39.40
2023-02-18T05:46:30.469Z,41.00
2023-02-18T05:47:31.155Z,41.60
2023-02-18T05:48:31.859Z,34.60
2023-02-18T05:49:32.605Z,35.20
2023-02-18T05:50:33.302Z,49.70
2023-02-18T05:51:34.010Z,40.90
2023-02-18T05:52:34.721Z,40.00
2023-02-18T05:53:35.425Z,41.10
2023-02-18T05:54:36.155Z,51.00
2023-02-18T05:55:36.860Z,41.80
2023-02-18T05:56:37.564Z,41.10
2023-02-18T05:57:38.284Z,37.80
2023-02-18T05:58:38.940Z,39.50
2023-02-18T05:59:39.649Z,50.00
2023-02-18T06:00:40.355Z,44.30
2023-02-18T06:01:41.084Z,44.40
2023-02-18T06:02:41.814Z,34.30
2023-02-18T06:03:42.478Z,35.80
2023-02-18T06:04:43.211Z,46.10
2023-02-18T06:05:43.949Z,38.10
2023-02-18T06:06:44.616Z,38.70
2023-02-18T06:07:45.321Z,46.00
2023-02-18T06:08:46.034Z,47.80
2023-02-18T06:09:46.823Z,39.00
2023-02-18T06:10:47.538Z,27.60
2023-02-18T06:11:48.235Z,42.50
2023-02-18T06:12:48.962Z,37.30
2023-02-18T06:13:49.654Z,33.30
2023-02-18T06:14:50.366Z,31.00
2023-02-18T06:15:51.094Z,22.50
2023-02-18T06:16:51.792Z,26.30
2023-02-18T06:17:52.487Z,31.10
2023-02-18T06:18:53.183Z,27.30
2023-02-18T06:19:54.338Z,21.30
2023-02-18T06:20:54.585Z,23.60
2023-02-18T06:21:55.286Z,29.90
2023-02-18T06:22:56.004Z,29.10
2023-02-18T06:23:56.709Z,24.70
2023-02-18T06:24:57.825Z,32.40
2023-02-18T06:25:58.027Z,24.40
2023-02-18T06:26:58.736Z,35.00
2023-02-18T06:27:59.624Z,30.00
2023-02-18T06:29:00.261Z,28.90
2023-02-18T06:30:01.350Z,31.30
2023-02-18T06:31:01.741Z,35.40
2023-02-18T06:32:02.517Z,34.40
2023-02-18T06:33:03.195Z,42.40
2023-02-18T06:34:03.901Z,36.00
2023-02-18T06:35:04.817Z,37.40
2023-02-18T06:36:05.520Z,35.30
2023-02-18T06:37:06.240Z,30.40
2023-02-18T06:38:06.944Z,36.80
2023-02-18T06:39:07.644Z,29.70
2023-02-18T06:40:08.819Z,31.70
2023-02-18T06:41:09.033Z,35.70
2023-02-18T06:42:09.746Z,40.10
2023-02-18T06:43:10.476Z,31.10
2023-02-18T06:44:11.101Z,42.20
2023-02-18T06:45:12.274Z,40.50
2023-02-18T06:46:12.495Z,39.90
2023-02-18T06:47:13.203Z,37.90
2023-02-18T06:48:13.889Z,46.10
2023-02-18T06:49:14.599Z,46.50
2023-02-18T06:50:15.328Z,44.90
2023-02-18T06:51:16.032Z,42.50
2023-02-18T06:52:16.735Z,40.80
2023-02-18T06:53:17.459Z,39.20
2023-02-18T06:54:18.142Z,49.80
2023-02-18T06:55:18.857Z,50.70
2023-02-18T06:56:19.566Z,43.00
2023-02-18T06:57:20.277Z,45.90
2023-02-18T06:58:21.021Z,46.30
2023-02-18T06:59:21.666Z,57.40
2023-02-18T07:00:22.816Z,35.40
2023-02-18T07:01:23.024Z,43.70
2023-02-18T07:02:23.750Z,41.50
2023-02-18T07:03:24.447Z,41.80
2023-02-18T07:04:25.138Z,36.90
2023-02-18T07:05:25.859Z,44.50
2023-02-18T07:06:26.560Z,48.00
2023-02-18T07:07:27.263Z,50.70
2023-02-18T07:08:27.969Z,43.50
2023-02-18T07:09:28.688Z,47.40
2023-02-18T07:10:29.392Z,50.00
2023-02-18T07:11:30.105Z,41.10
2023-02-18T07:12:30.803Z,53.10
2023-02-18T07:13:31.541Z,49.10
2023-02-18T07:14:32.168Z,41.60
2023-02-18T07:15:32.889Z,44.40
2023-02-18T07:16:33.628Z,50.60
2023-02-18T07:17:34.314Z,47.90
2023-02-18T07:18:34.996Z,46.20
2023-02-18T07:19:35.701Z,51.00
2023-02-18T07:20:36.841Z,51.30
2023-02-18T07:21:37.049Z,48.40
2023-02-18T07:22:37.760Z,51.20
2023-02-18T07:23:38.467Z,52.60
2023-02-18T07:24:39.169Z,50.00
2023-02-18T07:25:40.322Z,41.10
2023-02-18T07:26:40.532Z,40.90
2023-02-18T07:27:41.242Z,45.10
2023-02-18T07:28:41.983Z,57.40
2023-02-18T07:29:42.620Z,53.10
2023-02-18T07:30:43.821Z,52.40
2023-02-18T07:31:44.168Z,51.80
2023-02-18T07:32:44.884Z,57.20
2023-02-18T07:33:45.571Z,56.00
2023-02-18T07:34:46.278Z,60.70
2023-02-18T07:35:46.987Z,50.40
2023-02-18T07:36:47.694Z,60.70
2023-02-18T07:37:48.420Z,43.70
2023-02-18T07:38:49.104Z,46.20
2023-02-18T07:39:49.807Z,45.60
2023-02-18T07:40:50.826Z,50.00
2023-02-18T07:41:51.066Z,49.10
2023-02-18T07:42:51.771Z,47.00
2023-02-18T07:43:52.494Z,37.50
2023-02-18T07:44:53.133Z,48.60
2023-02-18T07:45:54.994Z,44.50
2023-02-18T07:46:54.682Z,39.10
2023-02-18T07:47:55.417Z,52.00
2023-02-18T07:48:56.104Z,47.30
2023-02-18T07:49:56.808Z,48.20
2023-02-18T07:50:57.844Z,41.50
2023-02-18T07:51:58.054Z,34.30
2023-02-18T07:52:58.762Z,40.20
2023-02-18T07:53:59.465Z,34.20
2023-02-18T07:55:00.172Z,34.90
2023-02-18T07:56:01.323Z,38.10
2023-02-18T07:57:01.532Z,46.50
2023-02-18T07:58:02.293Z,27.10
2023-02-18T07:59:02.989Z,40.90
2023-02-18T08:00:03.638Z,23.60
2023-02-18T08:01:04.831Z,31.20
2023-02-18T08:02:05.083Z,33.80
2023-02-18T08:03:05.766Z,31.40
2023-02-18T08:04:06.477Z,31.40
2023-02-18T08:05:07.146Z,25.70
2023-02-18T08:06:08.766Z,22.20
2023-02-18T08:07:08.560Z,25.00
2023-02-18T08:08:09.279Z,20.20
2023-02-18T08:09:09.983Z,13.50
2023-02-18T08:10:10.677Z,13.20
2023-02-18T08:11:18.833Z,24.50
2023-02-18T08:12:12.992Z,15.50
2023-02-18T08:13:12.696Z,10.60
2023-02-18T08:14:13.421Z,23.50
2023-02-18T08:15:14.075Z,15.40
2023-02-18T08:16:15.014Z,12.70
2023-02-18T08:17:15.727Z,13.70
2023-02-18T08:18:16.494Z,11.40
2023-02-18T08:19:17.152Z,10.40
2023-02-18T08:20:17.855Z,8.70
2023-02-18T08:21:18.587Z,11.40
2023-02-18T08:22:19.301Z,9.10
2023-02-18T08:23:20.000Z,11.10
2023-02-18T08:24:20.706Z,11.00
2023-02-18T08:25:29.493Z,7.60
2023-02-18T08:26:23.340Z,7.30
2023-02-18T08:27:22.542Z,10.40
2023-02-18T08:28:23.246Z,7.00
2023-02-18T08:29:24.068Z,7.60
2023-02-18T08:30:24.740Z,5.70
2023-02-18T08:31:26.108Z,10.00
2023-02-18T08:32:26.333Z,16.90
2023-02-18T08:33:27.070Z,5.60
2023-02-18T08:34:27.743Z,5.50
2023-02-18T08:35:28.457Z,8.00
2023-02-18T08:36:29.220Z,5.60
2023-02-18T08:37:29.881Z,4.30
2023-02-18T08:38:31.484Z,4.50
2023-02-18T08:39:31.211Z,3.90
2023-02-18T08:40:31.918Z,4.20
2023-02-18T08:41:32.841Z,4.80
2023-02-18T08:42:33.541Z,6.80
2023-02-18T08:43:34.247Z,7.60
2023-02-18T08:44:34.967Z,3.80
2023-02-18T08:45:36.184Z,3.90
2023-02-18T08:46:37.200Z,3.70
2023-02-18T08:48:19.888Z,4.10
2023-02-18T08:48:38.589Z,5.00
2023-02-18T08:49:38.288Z,3.60
2023-02-18T08:50:39.001Z,4.20
2023-02-18T08:51:39.664Z,4.40
2023-02-18T08:52:40.367Z,3.80
2023-02-18T08:53:41.080Z,4.30
2023-02-18T08:54:41.775Z,6.90
2023-02-18T08:55:42.488Z,5.00
2023-02-18T08:56:43.199Z,6.00
2023-02-18T08:57:43.946Z,3.90
2023-02-18T08:58:44.608Z,3.60
2023-02-18T08:59:45.328Z,3.50
2023-02-18T09:00:45.999Z,3.40
2023-02-18T09:01:46.791Z,3.60
2023-02-18T09:02:47.459Z,4.10
2023-02-18T09:03:48.201Z,9.20
2023-02-18T09:04:48.859Z,4.60
2023-02-18T09:05:49.568Z,7.50
2023-02-18T09:06:50.369Z,5.70
2023-02-18T09:07:51.071Z,5.60
2023-02-18T09:08:51.770Z,4.60
2023-02-18T09:09:52.477Z,12.30
2023-02-18T09:10:53.180Z,7.30
2023-02-18T09:11:54.339Z,7.40
2023-02-18T09:12:54.576Z,13.60
2023-02-18T09:13:55.260Z,10.90
2023-02-18T09:14:55.991Z,12.80
2023-02-18T09:15:56.663Z,18.00
2023-02-18T09:16:57.335Z,13.90
2023-02-18T09:17:58.042Z,15.40
2023-02-18T09:18:58.793Z,18.90
2023-02-18T09:19:59.449Z,14.60
2023-02-18T09:21:00.180Z,20.70
2023-02-18T09:22:00.954Z,7.90
2023-02-18T09:23:01.620Z,19.20
2023-02-18T09:24:02.316Z,14.10
2023-02-18T09:25:03.023Z,18.50
2023-02-18T09:26:03.726Z,19.10
2023-02-18T09:27:04.442Z,23.10
2023-02-18T09:28:05.147Z,18.10
2023-02-18T09:29:05.846Z,23.30
2023-02-18T09:30:06.615Z,21.10
2023-02-18T09:31:07.714Z,17.30
2023-02-18T09:32:08.146Z,16.00
2023-02-18T09:33:08.806Z,16.00
2023-02-18T09:34:09.526Z,26.20
2023-02-18T09:35:10.226Z,17.20
2023-02-18T09:36:10.909Z,22.00
2023-02-18T09:37:11.622Z,16.40
2023-02-18T09:38:12.329Z,17.20
2023-02-18T09:39:13.035Z,19.00
2023-02-18T09:40:15.404Z,24.40
2023-02-18T09:41:14.641Z,17.60
2023-02-18T09:42:15.356Z,16.40
2023-02-18T09:43:16.060Z,20.10
2023-02-18T09:44:16.766Z,20.50
2023-02-18T09:45:17.485Z,24.10
2023-02-18T09:46:18.163Z,19.40
2023-02-18T09:47:18.924Z,21.20
2023-02-18T09:48:19.551Z,17.60
2023-02-18T09:49:20.283Z,21.00
2023-02-18T09:50:20.967Z,22.60
2023-02-18T09:51:21.661Z,19.00
2023-02-18T09:52:22.394Z,24.50
2023-02-18T09:53:23.100Z,27.90
2023-02-18T09:54:23.801Z,23.90
2023-02-18T09:55:24.504Z,14.70
2023-02-18T09:56:25.208Z,30.60
2023-02-18T09:57:26.341Z,32.00
2023-02-18T09:58:26.576Z,12.90
2023-02-18T09:59:27.269Z,41.60
2023-02-18T10:00:28.081Z,16.90
2023-02-18T10:01:28.712Z,30.10
2023-02-18T10:02:29.417Z,28.60
2023-02-18T10:03:30.115Z,27.80
2023-02-18T10:04:30.865Z,38.50
2023-02-18T10:05:31.536Z,28.50
2023-02-18T10:06:32.229Z,22.90
2023-02-18T10:07:32.968Z,27.00
2023-02-18T10:08:33.663Z,27.40
2023-02-18T10:09:34.377Z,27.30
2023-02-18T10:10:35.072Z,30.10
2023-02-18T10:11:35.775Z,28.50
2023-02-18T10:12:36.514Z,19.20
2023-02-18T10:13:37.213Z,23.90
2023-02-18T10:14:37.914Z,31.20
2023-02-18T10:15:38.693Z,35.40
2023-02-18T10:16:39.364Z,31.20
2023-02-18T10:17:40.104Z,41.40
2023-02-18T10:18:40.801Z,34.20
2023-02-18T10:19:41.528Z,32.70
2023-02-18T10:20:42.214Z,34.10
2023-02-18T10:21:42.908Z,31.40
2023-02-18T10:22:43.846Z,36.40
2023-02-18T10:23:44.550Z,47.40
2023-02-18T10:24:45.256Z,43.70
2023-02-18T10:25:45.969Z,46.70
2023-02-18T10:26:46.673Z,40.70
2023-02-18T10:27:47.846Z,35.10
2023-02-18T10:28:48.052Z,45.50
2023-02-18T10:29:48.756Z,37.30
2023-02-18T10:30:49.506Z,38.50
2023-02-18T10:31:50.226Z,50.70
2023-02-18T10:32:50.883Z,43.80
2023-02-18T10:33:51.585Z,34.20
2023-02-18T10:34:52.308Z,44.90
2023-02-18T10:35:52.996Z,45.70
2023-02-18T10:36:53.700Z,40.00
2023-02-18T10:37:54.851Z,52.20
2023-02-18T10:38:55.053Z,42.80
2023-02-18T10:39:55.756Z,55.90
2023-02-18T10:40:58.522Z,53.50
2023-02-18T10:41:56.985Z,41.60
2023-02-18T10:42:57.695Z,52.50
2023-02-18T10:43:58.396Z,52.70
2023-02-18T10:44:59.108Z,48.80
2023-02-18T10:45:59.839Z,56.40
2023-02-18T10:47:00.494Z,64.20
2023-02-18T10:48:01.221Z,48.10
2023-02-18T10:49:01.925Z,48.20
2023-02-18T10:50:02.675Z,43.80
2023-02-18T10:51:03.339Z,61.60
2023-02-18T10:52:04.049Z,59.50
2023-02-18T10:53:04.761Z,65.60
2023-02-18T10:54:05.468Z,64.60
2023-02-18T10:55:06.176Z,63.80
2023-02-18T10:56:06.902Z,78.80
2023-02-18T10:57:07.585Z,73.40
2023-02-18T10:58:08.349Z,79.90
2023-02-18T10:59:09.056Z,68.50
2023-02-18T11:00:09.762Z,70.70
2023-02-18T11:01:10.872Z,70.20
2023-02-18T11:02:11.177Z,63.40
2023-02-18T11:03:11.891Z,64.60
2023-02-18T11:04:12.605Z,82.30
2023-02-18T11:05:13.333Z,76.90
2023-02-18T11:06:14.015Z,75.00
2023-02-18T11:07:14.746Z,77.70
2023-02-18T11:08:15.437Z,71.50
2023-02-18T11:09:16.140Z,71.80
2023-02-18T11:10:16.909Z,90.10
2023-02-18T11:11:17.545Z,76.00
2023-02-18T11:12:18.249Z,70.10
2023-02-18T11:13:18.962Z,66.60
2023-02-18T11:14:19.668Z,75.20
2023-02-18T11:15:20.389Z,70.80
2023-02-18T11:16:21.188Z,74.30
2023-02-18T11:17:21.859Z,84.00
2023-02-18T11:18:22.562Z,78.80
2023-02-18T11:19:23.252Z,70.00
2023-02-18T11:20:23.994Z,72.10
2023-02-18T11:21:24.674Z,66.20
2023-02-18T11:22:25.372Z,68.90
2023-02-18T11:23:26.368Z,68.70
2023-02-18T11:24:26.572Z,69.50
2023-02-18T11:25:27.287Z,65.90
2023-02-18T11:26:27.980Z,62.90
2023-02-18T11:27:28.692Z,70.20
2023-02-18T11:28:29.402Z,81.40
2023-02-18T11:29:30.113Z,79.50
2023-02-18T11:30:30.863Z,77.40
2023-02-18T11:31:31.644Z,65.10
2023-02-18T11:32:32.302Z,73.80
2023-02-18T11:33:33.374Z,65.50
2023-02-18T11:34:33.578Z,60.90
2023-02-18T11:35:34.303Z,74.10
2023-02-18T11:36:35.016Z,71.30
2023-02-18T11:37:35.700Z,70.30
2023-02-18T11:38:36.408Z,70.50
2023-02-18T11:39:37.111Z,74.80
2023-02-18T11:40:37.817Z,78.70
2023-02-18T11:41:38.526Z,73.40
2023-02-18T11:42:39.235Z,58.30
2023-02-18T11:43:39.943Z,63.00
2023-02-18T11:44:40.651Z,54.80
2023-02-18T11:45:41.359Z,64.90
2023-02-18T11:46:42.119Z,57.20
2023-02-18T11:47:42.908Z,56.80
2023-02-18T11:48:43.642Z,55.40
2023-02-18T11:49:44.350Z,53.70
2023-02-18T11:50:45.067Z,56.00
2023-02-18T11:51:45.752Z,48.00
2023-02-18T11:52:46.462Z,59.00
2023-02-18T11:53:47.408Z,51.80
2023-02-18T11:54:48.106Z,59.40
2023-02-18T11:55:48.813Z,60.50
2023-02-18T11:56:49.522Z,63.60
2023-02-18T11:57:50.226Z,66.20
2023-02-18T11:58:51.360Z,63.30
2023-02-18T11:59:51.564Z,63.90
2023-02-18T12:00:52.272Z,59.70
2023-02-18T12:01:53.160Z,48.00
2023-02-18T12:02:53.795Z,63.00
2023-02-18T12:03:54.861Z,70.50
2023-02-18T12:04:55.082Z,65.10
2023-02-18T12:05:55.791Z,56.40
2023-02-18T12:06:56.483Z,65.80
2023-02-18T12:07:57.197Z,65.60
2023-02-18T12:08:57.908Z,74.50
2023-02-18T12:09:58.838Z,71.20
2023-02-18T12:10:59.544Z,63.80
2023-02-18T12:12:00.377Z,65.90
2023-02-18T12:13:01.008Z,71.30
2023-02-18T12:14:01.870Z,65.20
2023-02-18T12:15:02.660Z,68.70
2023-02-18T12:16:03.368Z,50.10
2023-02-18T12:17:04.107Z,60.10
2023-02-18T12:18:05.019Z,61.20
2023-02-18T12:19:05.862Z,67.00
2023-02-18T12:20:06.605Z,64.00
2023-02-18T12:21:07.697Z,63.80
2023-02-18T12:22:07.997Z,70.80
2023-02-18T12:23:08.703Z,68.90
2023-02-18T12:24:09.867Z,66.10
2023-02-18T12:25:10.078Z,70.80
2023-02-18T12:26:10.782Z,69.60
2023-02-18T12:27:11.491Z,70.90
2023-02-18T12:28:12.197Z,71.70
2023-02-18T12:29:12.911Z,72.60
2023-02-18T12:30:13.731Z,74.20
2023-02-18T12:31:14.480Z,79.60
2023-02-18T12:32:15.318Z,73.10
2023-02-18T12:33:15.989Z,65.70
2023-02-18T12:34:16.865Z,77.90
2023-02-18T12:35:17.572Z,72.90
2023-02-18T12:36:18.296Z,76.00
2023-02-18T12:37:18.979Z,59.40
2023-02-18T12:38:19.682Z,67.40
2023-02-18T12:39:20.874Z,60.10
2023-02-18T12:40:21.186Z,54.60
2023-02-18T12:41:21.909Z,65.50
2023-02-18T12:42:22.614Z,64.70
2023-02-18T12:43:23.323Z,79.90
2023-02-18T12:44:24.033Z,77.70
2023-02-18T12:45:24.740Z,72.20
2023-02-18T12:46:25.460Z,78.50
2023-02-18T12:47:26.186Z,63.30
2023-02-18T12:48:26.816Z,72.60
2023-02-18T12:49:27.908Z,67.80
2023-02-18T12:50:28.086Z,65.20
2023-02-18T12:51:30.393Z,61.60
2023-02-18T12:52:29.697Z,63.70
2023-02-18T12:53:30.397Z,60.80